createdAt,value
2022-11-09T00:01:05.202Z,0.82
2022-11-09T00:03:32.095Z,1.30
2022-11-09T00:05:59.815Z,1.02
2022-11-09T00:08:26.560Z,0.90
2022-11-09T00:10:53.128Z,0.85
2022-11-09T00:13:19.996Z,0.80
2022-11-09T00:15:46.741Z,0.90
2022-11-09T00:18:13.249Z,1.10
2022-11-09T00:20:44.498Z,1.02
2022-11-09T00:23:13.726Z,1.23
2022-11-09T00:25:40.270Z,0.75
2022-11-09T00:28:06.834Z,0.82
2022-11-09T00:30:33.340Z,1.20
2022-11-09T00:32:59.836Z,1.10
2022-11-09T00:35:26.761Z,0.90
2022-11-09T00:37:53.328Z,1.13
2022-11-09T00:40:19.944Z,1.23
2022-11-09T00:42:46.463Z,1.20
2022-11-09T00:45:12.973Z,1.13
2022-11-09T00:47:39.466Z,1.10
2022-11-09T00:50:06.542Z,1.20
2022-11-09T00:52:33.180Z,1.10
2022-11-09T00:54:59.891Z,0.98
2022-11-09T00:57:26.550Z,1.10
2022-11-09T00:59:54.184Z,1.20
2022-11-09T01:02:20.738Z,1.60
2022-11-09T01:04:47.261Z,1.33
2022-11-09T01:07:13.812Z,1.10
2022-11-09T01:09:40.404Z,1.35
2022-11-09T01:12:07.077Z,1.20
2022-11-09T01:14:33.588Z,1.30
2022-11-09T01:17:00.150Z,1.30
2022-11-09T01:19:26.799Z,1.27
2022-11-09T01:21:53.365Z,1.20
2022-11-09T01:24:19.873Z,1.25
2022-11-09T01:26:46.545Z,1.10
2022-11-09T01:29:13.091Z,1.23
2022-11-09T01:31:39.633Z,1.17
2022-11-09T01:34:06.218Z,1.52
2022-11-09T01:36:32.759Z,1.30
2022-11-09T01:38:59.257Z,1.42
2022-11-09T01:41:28.032Z,1.50
2022-11-09T01:44:11.392Z,1.40
2022-11-09T01:46:40.723Z,1.50
2022-11-09T01:49:15.185Z,1.67
2022-11-09T01:51:45.818Z,1.42
2022-11-09T01:54:26.148Z,1.17
2022-11-09T01:56:57.469Z,1.45
2022-11-09T01:59:31.385Z,1.10
2022-11-09T02:02:00.211Z,1.40
2022-11-09T02:04:33.041Z,1.35
2022-11-09T02:07:00.192Z,1.15
2022-11-09T02:09:45.763Z,1.20
2022-11-09T02:12:12.508Z,1.10
2022-11-09T02:14:39.294Z,1.00
2022-11-09T02:17:06.863Z,1.10
2022-11-09T02:19:33.479Z,1.10
2022-11-09T02:22:00.173Z,1.10
2022-11-09T02:24:27.544Z,1.10
2022-11-09T02:26:54.624Z,1.20
2022-11-09T02:29:28.093Z,1.40
2022-11-09T02:31:59.341Z,1.00
2022-11-09T02:34:25.983Z,1.30
2022-11-09T02:36:52.920Z,1.17
2022-11-09T02:39:24.837Z,1.08
2022-11-09T02:42:01.463Z,1.27
2022-11-09T02:44:32.029Z,1.30
2022-11-09T02:46:58.558Z,1.40
2022-11-09T02:49:25.053Z,1.35
2022-11-09T02:51:51.589Z,1.00
2022-11-09T02:54:18.142Z,1.30
2022-11-09T02:56:44.709Z,1.30
2022-11-09T02:59:11.259Z,1.00
2022-11-09T03:01:37.851Z,1.20
2022-11-09T03:04:04.525Z,0.85
2022-11-09T03:06:36.714Z,1.38
2022-11-09T03:09:06.416Z,0.98
2022-11-09T03:11:33.456Z,1.10
2022-11-09T03:13:59.965Z,1.15
2022-11-09T03:16:26.543Z,1.20
2022-11-09T03:18:53.168Z,1.17
2022-11-09T03:21:19.892Z,1.20
2022-11-09T03:23:46.735Z,1.10
2022-11-09T03:26:13.261Z,1.20
2022-11-09T03:28:39.960Z,1.48
2022-11-09T03:31:06.809Z,1.00
2022-11-09T03:33:33.522Z,1.20
2022-11-09T03:36:00.602Z,1.27
2022-11-09T03:38:27.164Z,1.10
2022-11-09T03:40:53.674Z,1.25
2022-11-09T03:43:20.539Z,1.00
2022-11-09T03:45:48.072Z,1.52
2022-11-09T03:48:14.599Z,0.93
2022-11-09T03:50:41.165Z,1.30
2022-11-09T03:53:12.023Z,1.17
2022-11-09T03:55:39.831Z,1.45
2022-11-09T03:58:08.051Z,1.02
2022-11-09T04:00:36.158Z,1.10
2022-11-09T04:03:02.902Z,1.30
2022-11-09T04:05:29.404Z,1.30
2022-11-09T04:07:57.746Z,1.17
2022-11-09T04:10:26.090Z,1.00
2022-11-09T04:12:53.294Z,1.15
2022-11-09T04:15:19.878Z,1.48
2022-11-09T04:17:55.059Z,1.20
2022-11-09T04:20:21.605Z,1.17
2022-11-09T04:22:57.977Z,1.38
2022-11-09T04:25:26.189Z,1.30
2022-11-09T04:27:57.258Z,1.10
2022-11-09T04:30:24.690Z,1.33
2022-11-09T04:32:51.239Z,1.00
2022-11-09T04:35:17.777Z,1.30
2022-11-09T04:37:44.446Z,1.20
2022-11-09T04:40:11.716Z,1.08
2022-11-09T04:42:38.223Z,1.25
2022-11-09T04:45:05.199Z,1.17
2022-11-09T04:47:31.707Z,1.20
2022-11-09T04:49:58.213Z,0.80
2022-11-09T04:52:24.818Z,1.00
2022-11-09T04:54:51.331Z,1.08
2022-11-09T04:57:17.830Z,1.20
2022-11-09T04:59:44.362Z,1.00
2022-11-09T05:02:10.901Z,1.20
2022-11-09T05:04:37.405Z,1.17
2022-11-09T05:07:04.018Z,1.02
2022-11-09T05:09:30.579Z,0.80
2022-11-09T05:11:57.325Z,0.95
2022-11-09T05:14:23.864Z,1.05
2022-11-09T05:16:50.566Z,0.88
2022-11-09T05:19:17.291Z,1.02
2022-11-09T05:21:43.883Z,1.00
2022-11-09T05:24:10.733Z,0.80
2022-11-09T05:26:41.919Z,0.90
2022-11-09T05:29:12.813Z,0.93
2022-11-09T05:31:40.352Z,0.90
2022-11-09T05:34:07.543Z,0.70
2022-11-09T05:36:34.161Z,0.90
2022-11-09T05:39:01.287Z,0.90
2022-11-09T05:41:28.199Z,0.63
2022-11-09T05:43:54.887Z,1.02
2022-11-09T05:46:21.461Z,0.90
2022-11-09T05:48:48.114Z,1.25
2022-11-09T05:51:15.298Z,1.00
2022-11-09T05:53:46.156Z,1.10
2022-11-09T05:56:13.444Z,1.40
2022-11-09T05:58:41.412Z,0.73
2022-11-09T06:01:16.066Z,1.10
2022-11-09T06:03:44.322Z,0.80
2022-11-09T06:06:14.175Z,1.00
2022-11-09T06:08:40.898Z,0.90
2022-11-09T06:11:10.229Z,0.80
2022-11-09T06:13:37.190Z,0.70
2022-11-09T06:16:05.185Z,1.10
2022-11-09T06:18:33.474Z,0.85
2022-11-09T06:21:02.231Z,0.93
2022-11-09T06:23:30.238Z,0.70
2022-11-09T06:26:01.458Z,0.90
2022-11-09T06:28:28.536Z,0.70
2022-11-09T06:30:59.781Z,1.15
2022-11-09T06:33:26.941Z,1.17
2022-11-09T06:35:56.316Z,1.40
2022-11-09T06:38:23.538Z,0.95
2022-11-09T06:40:54.117Z,1.25
2022-11-09T06:43:21.142Z,1.13
2022-11-09T06:45:48.008Z,1.27
2022-11-09T06:48:14.646Z,1.20
2022-11-09T06:50:41.374Z,1.30
2022-11-09T06:53:11.192Z,1.30
2022-11-09T06:55:38.050Z,1.38
2022-11-09T06:58:15.847Z,0.88
2022-11-09T07:00:44.006Z,1.02
2022-11-09T07:03:18.309Z,1.20
2022-11-09T07:05:45.800Z,1.13
2022-11-09T07:08:13.331Z,1.27
2022-11-09T07:10:40.299Z,1.23
2022-11-09T07:13:07.283Z,1.20
2022-11-09T07:15:35.390Z,1.30
2022-11-09T07:18:04.189Z,1.40
2022-11-09T07:20:31.532Z,1.20
2022-11-09T07:22:58.109Z,1.50
2022-11-09T07:25:27.210Z,1.20
2022-11-09T07:27:54.108Z,1.45
2022-11-09T07:30:20.625Z,1.30
2022-11-09T07:33:07.941Z,1.40
2022-11-09T07:35:33.730Z,1.17
2022-11-09T07:38:01.799Z,1.27
2022-11-09T07:40:28.714Z,1.20
2022-11-09T07:42:59.337Z,1.42
2022-11-09T07:45:26.122Z,1.55
2022-11-09T07:48:02.440Z,1.20
2022-11-09T07:50:30.594Z,1.50
2022-11-09T07:52:59.232Z,1.70
2022-11-09T07:55:27.140Z,1.20
2022-11-09T07:57:58.655Z,1.20
2022-11-09T08:00:26.497Z,1.33
2022-11-09T08:02:53.570Z,1.20
2022-11-09T08:05:20.345Z,1.30
2022-11-09T08:07:47.067Z,1.33
2022-11-09T08:10:14.439Z,1.73
2022-11-09T08:12:40.983Z,1.40
2022-11-09T08:15:08.068Z,1.10
2022-11-09T08:17:34.626Z,1.20
2022-11-09T08:20:01.152Z,1.30
2022-11-09T08:22:27.718Z,1.40
2022-11-09T08:24:54.255Z,1.45
2022-11-09T08:27:22.852Z,1.33
2022-11-09T08:29:49.437Z,1.55
2022-11-09T08:32:15.981Z,1.40
2022-11-09T08:34:47.139Z,1.52
2022-11-09T08:37:13.804Z,1.77
2022-11-09T08:39:40.352Z,1.40
2022-11-09T08:42:06.875Z,1.60
2022-11-09T08:44:33.389Z,1.60
2022-11-09T08:46:59.925Z,1.58
2022-11-09T08:49:26.446Z,1.73
2022-11-09T08:51:53.036Z,1.25
2022-11-09T08:54:19.609Z,1.55
2022-11-09T08:56:46.480Z,1.48
2022-11-09T08:59:13.033Z,1.67
2022-11-09T09:01:39.665Z,1.23
2022-11-09T09:04:06.300Z,1.90
2022-11-09T09:06:33.005Z,1.33
2022-11-09T09:08:59.589Z,1.60
2022-11-09T09:11:26.156Z,1.50
2022-11-09T09:13:52.689Z,1.45
2022-11-09T09:16:19.288Z,1.15
2022-11-09T09:18:48.368Z,1.70
2022-11-09T09:21:15.083Z,2.15
2022-11-09T09:23:41.599Z,1.75
2022-11-09T09:26:08.341Z,1.50
2022-11-09T09:28:34.930Z,1.50
2022-11-09T09:31:02.307Z,1.50
2022-11-09T09:33:29.378Z,1.63
2022-11-09T09:35:57.830Z,1.73
2022-11-09T09:38:25.470Z,1.60
2022-11-09T09:40:58.232Z,1.60
2022-11-09T09:43:47.357Z,1.90
2022-11-09T09:46:41.515Z,1.73
2022-11-09T09:49:15.057Z,1.60
2022-11-09T09:52:01.181Z,1.60
2022-11-09T09:54:33.925Z,1.60
2022-11-09T09:57:02.023Z,1.90
2022-11-09T09:59:43.106Z,1.83
2022-11-09T10:02:31.045Z,1.73
2022-11-09T10:05:00.407Z,2.40
2022-11-09T10:07:49.611Z,2.08
2022-11-09T10:10:39.761Z,2.08
2022-11-09T10:13:24.749Z,2.20
2022-11-09T10:16:13.217Z,1.90
2022-11-09T10:18:58.608Z,1.60
2022-11-09T10:21:50.049Z,1.90
2022-11-09T10:24:28.647Z,1.73
2022-11-09T10:26:57.398Z,2.15
2022-11-09T10:29:24.159Z,1.77
2022-11-09T10:31:53.359Z,2.20
2022-11-09T10:34:26.400Z,1.90
2022-11-09T10:37:06.192Z,2.22
2022-11-09T10:39:49.540Z,2.33
2022-11-09T10:42:16.108Z,2.38
2022-11-09T10:44:42.670Z,2.00
2022-11-09T10:47:13.113Z,2.47
2022-11-09T10:49:40.790Z,1.80
2022-11-09T10:52:32.139Z,2.28
2022-11-09T10:55:17.364Z,2.10
2022-11-09T10:57:57.637Z,2.50
2022-11-09T11:00:24.856Z,1.90
2022-11-09T11:02:52.767Z,2.38
2022-11-09T11:05:19.309Z,2.00
2022-11-09T11:07:46.573Z,1.80
2022-11-09T11:10:16.064Z,2.25
2022-11-09T11:12:53.445Z,1.55
2022-11-09T11:15:25.463Z,2.67
2022-11-09T11:20:28.867Z,2.10
2022-11-09T11:23:25.888Z,2.17
2022-11-09T11:25:55.583Z,1.60
2022-11-09T11:28:32.074Z,1.60
2022-11-09T11:30:58.735Z,1.90
2022-11-09T11:33:26.250Z,2.05
2022-11-09T11:35:56.566Z,1.95
2022-11-09T11:38:32.050Z,1.67
2022-11-09T11:41:09.363Z,1.85
2022-11-09T11:43:56.529Z,1.90
2022-11-09T11:46:41.509Z,2.10
2022-11-09T11:49:41.532Z,2.22
2022-11-09T11:52:51.108Z,1.75
2022-11-09T11:55:20.462Z,1.80
2022-11-09T11:58:05.107Z,1.65
2022-11-09T12:00:39.555Z,1.90
2022-11-09T12:03:16.831Z,2.05
2022-11-09T12:06:19.432Z,1.75
2022-11-09T12:11:46.718Z,2.08
2022-11-09T12:14:22.447Z,1.85
2022-11-09T12:17:07.381Z,2.40
2022-11-09T12:19:54.022Z,2.15
2022-11-09T12:23:02.440Z,1.90
2022-11-09T12:25:31.973Z,2.22
2022-11-09T12:28:22.827Z,1.88
2022-11-09T12:31:10.705Z,2.20
2022-11-09T12:33:46.243Z,2.67
2022-11-09T12:36:18.968Z,1.70
2022-11-09T12:38:52.582Z,1.92
2022-11-09T12:41:24.036Z,1.88
2022-11-09T12:44:17.126Z,2.10
2022-11-09T12:46:50.116Z,2.03
2022-11-09T12:49:40.960Z,1.80
2022-11-09T12:52:11.339Z,1.77
2022-11-09T12:54:45.698Z,2.00
2022-11-09T12:57:21.035Z,1.52
2022-11-09T12:59:52.077Z,1.67
2022-11-09T13:02:27.720Z,1.55
2022-11-09T13:04:56.825Z,1.67
2022-11-09T13:07:32.058Z,1.92
2022-11-09T13:10:01.712Z,1.80
2022-11-09T13:12:35.752Z,2.00
2022-11-09T13:15:26.607Z,1.58
2022-11-09T13:17:58.135Z,1.92
2022-11-09T13:24:04.462Z,1.48
2022-11-09T13:26:32.408Z,1.80
2022-11-09T13:29:24.777Z,2.50
2022-11-09T13:34:48.843Z,2.35
2022-11-09T13:37:43.300Z,1.90
2022-11-09T13:40:31.832Z,2.00
2022-11-09T13:43:14.495Z,1.80
2022-11-09T13:45:53.081Z,1.98
2022-11-09T13:48:48.003Z,1.50
2022-11-09T13:51:22.439Z,1.95
2022-11-09T13:53:48.906Z,1.55
2022-11-09T13:56:27.946Z,1.70
2022-11-09T13:59:07.654Z,2.40
2022-11-09T14:01:45.471Z,1.63
2022-11-09T14:04:25.950Z,1.70
2022-11-09T14:07:01.517Z,1.70
2022-11-09T14:09:32.293Z,2.53
2022-11-09T14:12:13.987Z,1.70
2022-11-09T14:14:55.454Z,1.98
2022-11-09T14:17:29.380Z,1.70
2022-11-09T14:20:17.779Z,1.75
2022-11-09T14:22:44.558Z,2.45
2022-11-09T14:25:15.330Z,1.52
2022-11-09T14:27:57.428Z,1.95
2022-11-09T14:30:29.657Z,2.03
2022-11-09T14:32:58.664Z,1.40
2022-11-09T14:35:35.159Z,2.05
2022-11-09T14:38:18.680Z,2.47
2022-11-09T14:40:47.908Z,1.50
2022-11-09T14:43:25.905Z,1.98
2022-11-09T14:46:01.372Z,2.13
2022-11-09T14:48:29.834Z,2.20
2022-11-09T14:50:59.783Z,2.00
2022-11-09T14:53:35.832Z,2.35
2022-11-09T14:56:06.831Z,1.70
2022-11-09T14:58:36.120Z,1.95
2022-11-09T15:01:25.778Z,1.73
2022-11-09T15:04:14.017Z,1.95
2022-11-09T15:06:51.582Z,2.15
2022-11-09T15:09:33.850Z,2.67
2022-11-09T15:14:36.416Z,1.92
2022-11-09T15:17:23.852Z,2.08
2022-11-09T15:19:57.418Z,1.98
2022-11-09T15:22:53.397Z,2.20
2022-11-09T15:25:41.637Z,2.00
2022-11-09T15:28:14.200Z,2.30
2022-11-09T15:30:46.239Z,2.00
2022-11-09T15:33:24.300Z,1.98
2022-11-09T15:35:55.846Z,2.65
2022-11-09T15:38:36.792Z,1.98
2022-11-09T15:41:09.634Z,1.90
2022-11-09T15:43:36.832Z,2.10
2022-11-09T15:46:04.676Z,1.92
2022-11-09T15:48:31.762Z,1.88
2022-11-09T15:50:58.478Z,2.30
2022-11-09T15:53:26.146Z,2.50
2022-11-09T15:55:52.685Z,2.13
2022-11-09T15:58:19.728Z,2.55
2022-11-09T16:00:46.742Z,1.83
2022-11-09T16:03:13.717Z,2.20
2022-11-09T16:05:40.233Z,2.03
2022-11-09T16:08:08.073Z,2.17
2022-11-09T16:10:37.937Z,2.05
2022-11-09T16:13:06.443Z,2.35
2022-11-09T16:15:35.256Z,2.15
2022-11-09T16:18:02.478Z,1.98
2022-11-09T16:20:29.301Z,2.42
2022-11-09T16:22:56.167Z,2.72
2022-11-09T16:25:22.914Z,1.90
2022-11-09T16:27:51.295Z,2.58
2022-11-09T16:30:19.423Z,2.20
2022-11-09T16:32:46.206Z,2.28
2022-11-09T16:35:26.798Z,2.22
2022-11-09T16:37:55.407Z,2.05
2022-11-09T16:40:22.800Z,2.55
2022-11-09T16:42:49.438Z,2.10
2022-11-09T16:45:17.157Z,2.10
2022-11-09T16:47:49.336Z,2.17
2022-11-09T16:50:16.560Z,2.15
2022-11-09T16:52:43.234Z,2.33
2022-11-09T16:55:10.259Z,2.53
2022-11-09T16:57:36.921Z,2.30
2022-11-09T17:00:07.888Z,2.50
2022-11-09T17:02:35.082Z,2.10
2022-11-09T17:05:01.708Z,1.85
2022-11-09T17:07:28.640Z,2.97
2022-11-09T17:09:55.264Z,2.65
2022-11-09T17:12:22.048Z,2.47
2022-11-09T17:14:48.563Z,2.40
2022-11-09T17:17:21.186Z,2.17
2022-11-09T17:19:49.105Z,2.78
2022-11-09T17:22:15.910Z,2.17
2022-11-09T17:24:42.462Z,2.50
2022-11-09T17:27:09.826Z,2.03
2022-11-09T17:29:39.800Z,2.55
2022-11-09T17:32:10.281Z,2.28
2022-11-09T17:34:36.885Z,2.70
2022-11-09T17:37:05.227Z,2.80
2022-11-09T17:39:32.700Z,2.97
2022-11-09T17:41:59.262Z,2.50
2022-11-09T17:44:25.809Z,2.42
2022-11-09T17:46:52.358Z,2.90
2022-11-09T17:49:18.887Z,2.85
2022-11-09T17:51:45.621Z,2.80
2022-11-09T17:54:12.302Z,3.13
2022-11-09T17:56:39.073Z,2.85
2022-11-09T17:59:05.876Z,2.85
2022-11-09T18:01:37.794Z,3.10
2022-11-09T18:04:11.204Z,3.20
2022-11-09T18:06:38.363Z,2.88
2022-11-09T18:11:52.010Z,2.92
2022-11-09T18:14:18.776Z,2.58
2022-11-09T18:16:45.407Z,2.90
2022-11-09T18:19:12.236Z,3.13
2022-11-09T18:21:39.031Z,2.70
2022-11-09T18:24:05.904Z,2.92
2022-11-09T18:26:32.891Z,2.15
2022-11-09T18:29:00.377Z,2.60
2022-11-09T18:31:27.140Z,2.45
2022-11-09T18:33:54.173Z,2.42
2022-11-09T18:36:21.641Z,2.50
2022-11-09T18:38:51.139Z,2.95
2022-11-09T18:41:21.872Z,2.72
2022-11-09T18:43:49.682Z,2.45
2022-11-09T18:46:18.267Z,2.33
2022-11-09T18:48:45.273Z,2.72
2022-11-09T18:51:12.752Z,3.08
2022-11-09T18:53:42.253Z,2.50
2022-11-09T18:56:18.247Z,2.53
2022-11-09T18:58:46.167Z,3.13
2022-11-09T19:01:13.017Z,2.97
2022-11-09T19:03:39.693Z,3.08
2022-11-09T19:06:08.466Z,3.10
2022-11-09T19:08:53.709Z,2.78
2022-11-09T19:11:20.293Z,3.00
2022-11-09T19:13:46.906Z,2.40
2022-11-09T19:16:14.328Z,2.83
2022-11-09T19:18:41.089Z,2.88
2022-11-09T19:21:27.888Z,2.90
2022-11-09T19:23:54.839Z,3.45
2022-11-09T19:26:22.497Z,3.05
2022-11-09T19:28:49.042Z,3.17
2022-11-09T19:31:17.486Z,2.80
2022-11-09T19:33:44.035Z,3.00
2022-11-09T19:38:57.983Z,2.85
2022-11-09T19:41:25.629Z,3.63
2022-11-09T19:43:54.767Z,2.85
2022-11-09T19:46:21.822Z,2.58
2022-11-09T19:48:48.583Z,2.60
2022-11-09T19:51:16.585Z,3.22
2022-11-09T19:53:52.325Z,2.97
2022-11-09T19:56:20.262Z,3.40
2022-11-09T19:58:52.075Z,3.35
2022-11-09T20:01:19.110Z,3.00
2022-11-09T20:03:50.384Z,3.05
2022-11-09T20:06:17.459Z,3.30
2022-11-09T20:08:44.243Z,3.97
2022-11-09T20:11:34.001Z,2.85
2022-11-09T20:14:00.549Z,3.17
2022-11-09T20:16:27.557Z,2.92
2022-11-09T20:18:54.598Z,3.00
2022-11-09T20:21:21.243Z,3.10
2022-11-09T20:23:47.792Z,2.97
2022-11-09T20:26:14.525Z,2.92
2022-11-09T20:28:41.056Z,3.10
2022-11-09T20:31:16.875Z,3.13
2022-11-09T20:33:43.539Z,3.50
2022-11-09T20:36:10.141Z,3.30
2022-11-09T20:38:36.731Z,3.63
2022-11-09T20:41:06.067Z,4.18
2022-11-09T20:43:33.025Z,3.17
2022-11-09T20:46:04.631Z,3.50
2022-11-09T20:48:52.917Z,3.50
2022-11-09T20:51:19.609Z,2.75
2022-11-09T20:53:47.442Z,3.70
2022-11-09T20:56:14.866Z,3.35
2022-11-09T20:58:41.464Z,3.20
2022-11-09T21:01:24.825Z,2.78
2022-11-09T21:03:52.952Z,3.78
2022-11-09T21:06:21.161Z,2.78
2022-11-09T21:08:52.533Z,2.97
2022-11-09T21:11:20.008Z,3.53
2022-11-09T21:13:53.881Z,3.05
2022-11-09T21:16:22.228Z,3.40
2022-11-09T21:18:48.983Z,3.40
2022-11-09T21:21:18.324Z,3.05
2022-11-09T21:24:03.551Z,3.60
2022-11-09T21:26:48.762Z,3.30
2022-11-09T21:29:39.172Z,3.40
2022-11-09T21:32:07.068Z,3.22
2022-11-09T21:34:36.726Z,2.85
2022-11-09T21:37:03.882Z,3.05
2022-11-09T21:39:30.382Z,3.30
2022-11-09T21:41:57.365Z,2.97
2022-11-09T21:44:23.942Z,2.72
2022-11-09T21:46:50.547Z,3.15
2022-11-09T21:49:17.198Z,3.22
2022-11-09T21:51:43.727Z,3.00
2022-11-09T21:54:10.572Z,3.15
2022-11-09T21:56:37.220Z,3.42
2022-11-09T21:59:04.462Z,2.97
2022-11-09T22:01:31.433Z,3.70
2022-11-09T22:03:58.109Z,2.78
2022-11-09T22:06:25.675Z,2.78
2022-11-09T22:08:52.208Z,3.10
2022-11-09T22:11:44.017Z,3.22
2022-11-09T22:14:34.427Z,3.35
2022-11-09T22:17:01.573Z,3.45
2022-11-09T22:19:46.944Z,3.03
2022-11-09T22:22:14.760Z,3.17
2022-11-09T22:24:41.562Z,2.70
2022-11-09T22:27:08.772Z,3.20
2022-11-09T22:29:35.400Z,3.20
2022-11-09T22:32:02.193Z,3.17
2022-11-09T22:34:28.729Z,3.92
2022-11-09T22:36:55.303Z,3.70
2022-11-09T22:39:21.892Z,3.35
2022-11-09T22:41:48.734Z,3.03
2022-11-09T22:44:15.485Z,4.43
2022-11-09T22:46:42.038Z,3.20
2022-11-09T22:49:08.628Z,3.15
2022-11-09T22:51:35.309Z,3.50
2022-11-09T22:54:01.915Z,3.35
2022-11-09T22:56:28.444Z,3.67
2022-11-09T22:58:54.956Z,3.28
2022-11-09T23:01:21.594Z,3.60
2022-11-09T23:03:48.171Z,2.90
2022-11-09T23:06:17.643Z,3.10
2022-11-09T23:08:44.124Z,3.70
2022-11-09T23:11:22.171Z,3.97
2022-11-09T23:13:53.700Z,2.70
2022-11-09T23:16:21.602Z,3.28
2022-11-09T23:18:54.553Z,3.38
2022-11-09T23:21:26.223Z,3.47
2022-11-09T23:23:54.434Z,3.45
2022-11-09T23:26:22.753Z,3.65
2022-11-09T23:28:49.373Z,3.88
2022-11-09T23:31:19.544Z,3.28
2022-11-09T23:33:50.938Z,4.20
2022-11-09T23:36:18.128Z,3.40
2022-11-09T23:38:44.782Z,3.20
2022-11-09T23:41:12.441Z,3.60
2022-11-09T23:43:39.389Z,4.70
2022-11-09T23:46:08.372Z,3.70
2022-11-09T23:48:35.101Z,3.90
2022-11-09T23:51:02.589Z,3.90
2022-11-09T23:53:30.521Z,3.90
2022-11-09T23:56:09.076Z,4.35
2022-11-09T23:58:36.392Z,3.38
